Geronimo — PD6553 — position and weather

sailwx.info

Track history (hours):
 
Tides and Currents Weather Stations Pressure Air Temp Water Temp Dewpoint Dewpoint Depression Visibility Wind Speed Wind Dir Waves Ship Positions

Geronimo

Last reported at 2014-Jul-24 00:31 UTC. Time now 2014-Jul-31 15:42 UTC.
Position N 42°49' E 010°16'.

Length 20 m; draft 2.9 m.

Type: Sailing vessel. MMSI: 244620501.

Date/timePositionNaut miles runAvg speedWind from/ knotsBaromVisibWave heightAir tempDewpointWater temp
2014-Jul-24 00:31N 42°49' E 010°16'0 0.0
2014-Jul-23 23:28N 42°49' E 010°16'0 0.0
2014-Jul-23 22:22N 42°49' E 010°16'0 0.0
2014-Jul-23 21:08N 42°49' E 010°16'0 0.0
2014-Jul-23 20:33N 42°49' E 010°16'0 0.0
2014-Jul-23 19:33N 42°49' E 010°16'0 0.0
2014-Jul-23 18:33N 42°49' E 010°16'0 0.0
2014-Jul-23 17:33N 42°49' E 010°16'0 0.0
2014-Jul-23 16:26N 42°49' E 010°16'1 0.5
2014-Jul-23 15:17N 42°49' E 010°16'3 4.4
2014-Jul-23 14:33N 42°49' E 010°11'3 3.2
2014-Jul-23 13:33N 42°49' E 010°07'1 1.3
2014-Jul-23 12:33N 42°48' E 010°06'3 2.8
2014-Jul-23 11:33N 42°45' E 010°06'6 1.2
2014-Jul-23 06:28N 42°45' E 010°15'0 0.0
2014-Jul-23 04:17N 42°45' E 010°15'0 0.0
2014-Jul-23 03:33N 42°45' E 010°15'0 0.0
2014-Jul-22 21:15N 42°45' E 010°15'0 0.0
2014-Jul-22 20:28N 42°45' E 010°15'0 0.0
2014-Jul-22 19:27N 42°45' E 010°15'0 0.0
2014-Jul-22 18:15N 42°45' E 010°15'0 0.0
2014-Jul-22 17:22N 42°45' E 010°15'0 0.0
2014-Jul-22 16:20N 42°45' E 010°15'0 0.4
2014-Jul-22 15:30N 42°45' E 010°15'3 1.2
2014-Jul-22 13:17N 42°45' E 010°18'5 5.9
2014-Jul-22 12:24N 42°40' E 010°22'11 0.2
2014-Jul-20 12:33N 42°48' E 010°33'  
2014-Jul-17 12:09N 42°53' E 010°47'0 0.0
2014-Jul-17 11:33N 42°53' E 010°47'0 0.0
2014-Jul-17 09:32N 42°53' E 010°47'0 0.0
2014-Jul-17 08:33N 42°53' E 010°47'0 0.0
2014-Jul-17 07:29N 42°53' E 010°47'  
Track history (hours):
 
Tides and Currents Weather Stations Pressure Air Temp Water Temp Dewpoint Dewpoint Depression Visibility Wind Speed Wind Dir Waves Ship Positions

Geronimo

Last reported at 2014-Jul-24 00:31 UTC. Time now 2014-Jul-31 15:42 UTC.
Position N 42°49' E 010°16'.

Length 20 m; draft 2.9 m.

Type: Sailing vessel. MMSI: 244620501.

Date/timePositionNaut miles runAvg speedWind from/ knotsBaromVisibWave heightAir tempDewpointWater temp
2014-Jul-24 00:31N 42°49' E 010°16'0 0.0
2014-Jul-23 23:28N 42°49' E 010°16'0 0.0
2014-Jul-23 22:22N 42°49' E 010°16'0 0.0
2014-Jul-23 21:08N 42°49' E 010°16'0 0.0
2014-Jul-23 20:33N 42°49' E 010°16'0 0.0
2014-Jul-23 19:33N 42°49' E 010°16'0 0.0
2014-Jul-23 18:33N 42°49' E 010°16'0 0.0
2014-Jul-23 17:33N 42°49' E 010°16'0 0.0
2014-Jul-23 16:26N 42°49' E 010°16'1 0.5
2014-Jul-23 15:17N 42°49' E 010°16'3 4.4
2014-Jul-23 14:33N 42°49' E 010°11'3 3.2
2014-Jul-23 13:33N 42°49' E 010°07'1 1.3
2014-Jul-23 12:33N 42°48' E 010°06'3 2.8
2014-Jul-23 11:33N 42°45' E 010°06'6 1.2
2014-Jul-23 06:28N 42°45' E 010°15'0 0.0
2014-Jul-23 04:17N 42°45' E 010°15'0 0.0
2014-Jul-23 03:33N 42°45' E 010°15'0 0.0
2014-Jul-22 21:15N 42°45' E 010°15'0 0.0
2014-Jul-22 20:28N 42°45' E 010°15'0 0.0
2014-Jul-22 19:27N 42°45' E 010°15'0 0.0
2014-Jul-22 18:15N 42°45' E 010°15'0 0.0
2014-Jul-22 17:22N 42°45' E 010°15'0 0.0
2014-Jul-22 16:20N 42°45' E 010°15'0 0.4
2014-Jul-22 15:30N 42°45' E 010°15'3 1.2
2014-Jul-22 13:17N 42°45' E 010°18'5 5.9
2014-Jul-22 12:24N 42°40' E 010°22'11 0.2
2014-Jul-20 12:33N 42°48' E 010°33'  
2014-Jul-17 12:09N 42°53' E 010°47'0 0.0
2014-Jul-17 11:33N 42°53' E 010°47'0 0.0
2014-Jul-17 09:32N 42°53' E 010°47'0 0.0
2014-Jul-17 08:33N 42°53' E 010°47'0 0.0
2014-Jul-17 07:29N 42°53' E 010°47'  

Dump ship's entire track history